createdAt,value
2023-04-29T00:01:20.974Z,94.63
2023-04-29T00:03:48.068Z,93.61
2023-04-29T00:06:15.476Z,94.02
2023-04-29T00:08:43.386Z,100.00
2023-04-29T00:11:11.313Z,100.00
2023-04-29T00:13:40.973Z,100.00
2023-04-29T00:16:09.141Z,100.00
2023-04-29T00:18:37.293Z,100.00
2023-04-29T00:21:07.630Z,100.00
2023-04-29T00:23:34.696Z,100.00
2023-04-29T00:26:01.388Z,100.00
2023-04-29T00:28:28.238Z,100.00
2023-04-29T00:30:56.191Z,100.00
2023-04-29T00:33:23.291Z,100.00
2023-04-29T00:35:50.304Z,100.00
2023-04-29T00:38:17.434Z,100.00
2023-04-29T00:40:44.848Z,100.00
2023-04-29T00:43:11.549Z,100.00
2023-04-29T00:45:38.381Z,100.00
2023-04-29T00:48:05.443Z,100.00
2023-04-29T00:50:32.520Z,100.00
2023-04-29T00:53:00.234Z,100.00
2023-04-29T00:55:27.456Z,100.00
2023-04-29T00:57:54.081Z,100.00
2023-04-29T01:00:20.778Z,100.00
2023-04-29T01:02:49.123Z,100.00
2023-04-29T01:05:16.555Z,100.00
2023-04-29T01:07:59.647Z,100.00
2023-04-29T01:10:32.219Z,100.00
2023-04-29T01:13:19.332Z,100.00
2023-04-29T01:16:03.886Z,100.00
2023-04-29T01:18:39.415Z,100.00
2023-04-29T01:21:06.362Z,100.00
2023-04-29T01:23:33.514Z,100.00
2023-04-29T01:26:00.778Z,100.00
2023-04-29T01:29:02.399Z,100.00
2023-04-29T01:31:47.406Z,100.00
2023-04-29T01:34:34.312Z,100.00
2023-04-29T01:37:01.047Z,100.00
2023-04-29T01:39:36.292Z,100.00
2023-04-29T01:42:34.875Z,100.00
2023-04-29T01:45:06.545Z,100.00
2023-04-29T01:47:34.100Z,100.00
2023-04-29T01:50:01.353Z,100.00
2023-04-29T01:52:28.786Z,100.00
2023-04-29T01:54:55.660Z,100.00
2023-04-29T01:57:22.314Z,100.00
2023-04-29T01:59:48.906Z,100.00
2023-04-29T02:02:15.866Z,100.00
2023-04-29T02:04:43.157Z,100.00
2023-04-29T02:07:09.972Z,100.00
2023-04-29T02:09:36.725Z,100.00
2023-04-29T02:12:04.793Z,100.00
2023-04-29T02:14:31.860Z,100.00
2023-04-29T02:16:58.594Z,100.00
2023-04-29T02:19:25.380Z,100.00
2023-04-29T02:21:52.163Z,100.00
2023-04-29T02:24:18.789Z,100.00
2023-04-29T02:26:45.833Z,100.00
2023-04-29T02:29:12.541Z,100.00
2023-04-29T02:31:39.238Z,100.00
2023-04-29T02:34:05.934Z,100.00
2023-04-29T02:36:32.991Z,100.00
2023-04-29T02:39:00.571Z,100.00
2023-04-29T02:41:27.347Z,100.00
2023-04-29T02:43:54.025Z,100.00
2023-04-29T02:46:20.739Z,100.00
2023-04-29T02:48:47.611Z,100.00
2023-04-29T02:51:14.913Z,100.00
2023-04-29T02:53:41.587Z,100.00
2023-04-29T02:56:08.290Z,100.00
2023-04-29T02:58:34.924Z,100.00
2023-04-29T03:01:01.580Z,100.00
2023-04-29T03:03:28.441Z,100.00
2023-04-29T03:05:55.167Z,100.00
2023-04-29T03:08:22.517Z,100.00
2023-04-29T03:10:49.117Z,100.00
2023-04-29T03:13:16.114Z,100.00
2023-04-29T03:15:42.834Z,100.00
2023-04-29T03:18:09.865Z,100.00
2023-04-29T03:20:37.104Z,100.00
2023-04-29T03:23:03.954Z,100.00
2023-04-29T03:25:31.450Z,100.00
2023-04-29T03:27:58.091Z,100.00
2023-04-29T03:30:24.829Z,100.00
2023-04-29T03:32:51.584Z,100.00
2023-04-29T03:35:18.382Z,100.00
2023-04-29T03:37:45.337Z,100.00
2023-04-29T03:40:12.879Z,100.00
2023-04-29T03:42:39.847Z,100.00
2023-04-29T03:45:07.151Z,100.00
2023-04-29T03:47:33.937Z,100.00
2023-04-29T03:50:00.558Z,100.00
2023-04-29T03:52:27.469Z,100.00
2023-04-29T03:54:54.177Z,100.00
2023-04-29T03:57:20.887Z,100.00
2023-04-29T03:59:50.743Z,100.00
2023-04-29T04:02:18.080Z,100.00
2023-04-29T04:04:44.977Z,100.00
2023-04-29T04:07:14.668Z,100.00
2023-04-29T04:09:41.512Z,100.00
2023-04-29T04:12:08.183Z,100.00
2023-04-29T04:14:34.824Z,100.00
2023-04-29T04:17:01.660Z,100.00
2023-04-29T04:19:29.556Z,100.00
2023-04-29T04:21:56.404Z,100.00
2023-04-29T04:24:23.480Z,100.00
2023-04-29T04:26:50.446Z,99.08
2023-04-29T04:29:17.154Z,98.57
2023-04-29T04:31:46.718Z,100.00
2023-04-29T04:34:13.849Z,99.69
2023-04-29T04:36:41.457Z,99.33
2023-04-29T04:39:08.503Z,99.24
2023-04-29T04:41:35.937Z,96.80
2023-04-29T04:44:03.079Z,95.47
2023-04-29T04:46:29.825Z,96.15
2023-04-29T04:48:56.599Z,96.43
2023-04-29T04:51:23.345Z,92.71
2023-04-29T04:53:49.975Z,97.46
2023-04-29T04:56:16.700Z,99.59
2023-04-29T04:58:43.399Z,91.04
2023-04-29T05:01:10.235Z,88.65
2023-04-29T05:03:37.326Z,93.64
2023-04-29T05:06:04.686Z,90.16
2023-04-29T05:08:31.465Z,86.63
2023-04-29T05:10:58.625Z,83.25
2023-04-29T05:13:28.390Z,79.58
2023-04-29T05:15:54.959Z,80.86
2023-04-29T05:18:21.747Z,80.10
2023-04-29T05:20:48.421Z,85.74
2023-04-29T05:23:15.080Z,84.57
2023-04-29T05:25:42.547Z,80.29
2023-04-29T05:28:09.292Z,78.78
2023-04-29T05:30:36.000Z,77.79
2023-04-29T05:33:03.672Z,83.17
2023-04-29T05:35:31.138Z,83.78
2023-04-29T05:37:57.850Z,81.40
2023-04-29T05:40:25.005Z,79.27
2023-04-29T05:42:52.743Z,74.98
2023-04-29T05:45:19.627Z,72.41
2023-04-29T05:47:46.455Z,73.92
2023-04-29T05:50:13.314Z,72.95
2023-04-29T05:52:39.976Z,72.17
2023-04-29T05:55:06.647Z,72.93
2023-04-29T05:57:33.299Z,70.85
2023-04-29T06:00:00.388Z,69.49
2023-04-29T06:02:27.794Z,67.43
2023-04-29T06:04:54.974Z,64.26
2023-04-29T06:07:21.913Z,62.95
2023-04-29T06:09:48.704Z,59.69
2023-04-29T06:12:15.507Z,58.59
2023-04-29T06:14:42.593Z,55.39
2023-04-29T06:17:09.167Z,55.44
2023-04-29T06:19:36.128Z,56.50
2023-04-29T06:22:02.829Z,55.16
2023-04-29T06:24:29.650Z,55.17
2023-04-29T06:26:56.514Z,55.24
2023-04-29T06:29:23.335Z,56.28
2023-04-29T06:31:50.016Z,53.46
2023-04-29T06:34:16.698Z,52.41
2023-04-29T06:36:43.338Z,51.83
2023-04-29T06:39:10.090Z,51.65
2023-04-29T06:41:37.004Z,53.18
2023-04-29T06:44:03.784Z,52.36
2023-04-29T06:46:30.521Z,51.80
2023-04-29T06:48:57.252Z,51.73
2023-04-29T06:51:25.110Z,50.25
2023-04-29T06:53:51.809Z,51.19
2023-04-29T06:56:18.955Z,50.67
2023-04-29T06:58:45.549Z,50.55
2023-04-29T07:01:12.237Z,50.98
2023-04-29T07:03:39.466Z,51.33
2023-04-29T07:06:06.897Z,50.34
2023-04-29T07:08:33.622Z,49.37
2023-04-29T07:11:00.240Z,49.48
2023-04-29T07:13:26.972Z,49.13
2023-04-29T07:15:53.640Z,49.73
2023-04-29T07:18:20.442Z,48.78
2023-04-29T07:20:48.122Z,46.43
2023-04-29T07:23:15.224Z,46.05
2023-04-29T07:25:42.026Z,45.68
2023-04-29T07:28:09.271Z,44.55
2023-04-29T07:30:36.484Z,43.74
2023-04-29T07:33:04.529Z,44.64
2023-04-29T07:35:31.712Z,44.27
2023-04-29T07:37:58.380Z,44.13
2023-04-29T07:40:25.129Z,44.64
2023-04-29T07:42:51.914Z,44.71
2023-04-29T07:45:18.697Z,44.48
2023-04-29T07:47:45.965Z,44.62
2023-04-29T07:50:13.016Z,43.45
2023-04-29T07:52:39.713Z,43.18
2023-04-29T07:55:06.742Z,44.65
2023-04-29T07:57:33.435Z,44.59
2023-04-29T08:00:00.044Z,44.38
2023-04-29T08:02:27.237Z,42.22
2023-04-29T08:04:56.137Z,41.94
2023-04-29T08:07:23.435Z,41.89
2023-04-29T08:09:50.060Z,42.62
2023-04-29T08:12:16.796Z,42.88
2023-04-29T08:14:43.474Z,39.13
2023-04-29T08:17:10.227Z,39.33
2023-04-29T08:19:36.869Z,40.30
2023-04-29T08:22:04.455Z,38.58
2023-04-29T08:24:31.262Z,38.70
2023-04-29T08:26:59.261Z,38.83
2023-04-29T08:29:26.093Z,39.07
2023-04-29T08:31:53.113Z,40.65
2023-04-29T08:34:19.880Z,40.20
2023-04-29T08:36:46.619Z,39.12
2023-04-29T08:39:13.310Z,38.88
2023-04-29T08:41:40.064Z,39.64
2023-04-29T08:44:06.960Z,39.90
2023-04-29T08:46:33.860Z,40.54
2023-04-29T08:49:04.524Z,39.74
2023-04-29T08:51:33.262Z,39.00
2023-04-29T08:54:00.128Z,39.42
2023-04-29T08:56:28.881Z,40.07
2023-04-29T08:58:58.962Z,39.28
2023-04-29T09:01:28.901Z,38.45
2023-04-29T09:04:10.084Z,38.53
2023-04-29T09:06:37.033Z,38.37
2023-04-29T09:09:04.350Z,39.40
2023-04-29T09:11:31.534Z,38.92
2023-04-29T09:14:02.395Z,39.52
2023-04-29T09:16:29.462Z,40.16
2023-04-29T09:18:57.031Z,38.93
2023-04-29T09:21:25.466Z,39.64
2023-04-29T09:23:55.008Z,38.93
2023-04-29T09:26:22.588Z,37.08
2023-04-29T09:29:06.247Z,37.02
2023-04-29T09:31:32.819Z,37.28
2023-04-29T09:33:59.438Z,36.51
2023-04-29T09:36:45.665Z,36.71
2023-04-29T09:39:17.956Z,37.01
2023-04-29T09:41:50.644Z,37.58
2023-04-29T09:44:17.406Z,37.69
2023-04-29T09:46:44.367Z,35.93
2023-04-29T09:49:25.706Z,36.30
2023-04-29T09:51:57.887Z,36.09
2023-04-29T09:54:26.433Z,34.89
2023-04-29T09:56:53.520Z,34.63
2023-04-29T09:59:21.071Z,37.79
2023-04-29T10:01:54.161Z,35.26
2023-04-29T10:04:22.887Z,36.79
2023-04-29T10:06:51.519Z,35.93
2023-04-29T10:09:19.568Z,35.62
2023-04-29T10:11:50.885Z,36.08
2023-04-29T10:14:22.786Z,35.78
2023-04-29T10:16:54.554Z,35.56
2023-04-29T10:19:28.266Z,35.52
2023-04-29T10:22:00.765Z,35.01
2023-04-29T10:24:27.558Z,35.05
2023-04-29T10:26:56.782Z,33.77
2023-04-29T10:29:27.487Z,33.74
2023-04-29T10:31:56.114Z,34.87
2023-04-29T10:34:24.624Z,35.12
2023-04-29T10:36:51.764Z,35.28
2023-04-29T10:39:36.400Z,35.97
2023-04-29T10:42:06.163Z,35.48
2023-04-29T10:44:32.727Z,34.00
2023-04-29T10:47:28.669Z,34.78
2023-04-29T10:50:05.637Z,35.09
2023-04-29T10:52:51.798Z,34.31
2023-04-29T10:55:18.489Z,32.57
2023-04-29T10:57:45.047Z,32.27
2023-04-29T11:00:29.178Z,32.32
2023-04-29T11:02:57.052Z,32.21
2023-04-29T11:05:35.205Z,30.90
2023-04-29T11:08:23.031Z,29.53
2023-04-29T11:10:54.351Z,28.05
2023-04-29T11:13:22.239Z,29.13
2023-04-29T11:15:49.191Z,30.42
2023-04-29T11:18:16.170Z,29.68
2023-04-29T11:21:07.434Z,30.96
2023-04-29T11:23:35.688Z,30.49
2023-04-29T11:26:03.020Z,31.04
2023-04-29T11:28:31.508Z,31.20
2023-04-29T11:30:59.183Z,31.32
2023-04-29T11:33:29.910Z,32.00
2023-04-29T11:35:57.057Z,31.88
2023-04-29T11:38:28.051Z,29.66
2023-04-29T11:40:59.429Z,29.00
2023-04-29T11:43:26.276Z,29.43
2023-04-29T11:45:54.185Z,30.72
2023-04-29T11:48:21.953Z,31.65
2023-04-29T11:50:59.047Z,32.10
2023-04-29T11:53:28.104Z,31.41
2023-04-29T11:55:55.398Z,31.40
2023-04-29T11:58:23.406Z,32.14
2023-04-29T12:00:50.936Z,33.33
2023-04-29T12:03:20.789Z,34.77
2023-04-29T12:05:48.003Z,34.74
2023-04-29T12:08:15.085Z,33.51
2023-04-29T12:10:41.788Z,34.22
2023-04-29T12:13:10.202Z,31.20
2023-04-29T12:15:38.394Z,31.65
2023-04-29T12:18:07.425Z,30.47
2023-04-29T12:20:34.574Z,30.37
2023-04-29T12:23:24.256Z,30.92
2023-04-29T12:25:55.936Z,31.29
2023-04-29T12:28:23.148Z,32.91
2023-04-29T12:30:51.849Z,32.56
2023-04-29T12:33:25.554Z,33.40
2023-04-29T12:35:53.333Z,34.00
2023-04-29T12:38:30.188Z,33.31
2023-04-29T12:40:59.814Z,33.34
2023-04-29T12:43:30.476Z,32.41
2023-04-29T12:46:04.592Z,33.41
2023-04-29T12:48:33.565Z,34.16
2023-04-29T12:51:01.825Z,33.22
2023-04-29T12:53:32.510Z,34.34
2023-04-29T12:55:59.593Z,34.84
2023-04-29T12:58:30.180Z,33.32
2023-04-29T13:00:57.769Z,33.97
2023-04-29T13:03:24.951Z,34.57
2023-04-29T13:05:53.908Z,33.71
2023-04-29T13:08:21.277Z,34.03
2023-04-29T13:10:48.100Z,33.56
2023-04-29T13:13:14.682Z,33.43
2023-04-29T13:15:41.597Z,34.84
2023-04-29T13:18:08.514Z,33.98
2023-04-29T13:20:40.889Z,33.94
2023-04-29T13:23:08.743Z,34.05
2023-04-29T13:25:35.593Z,33.89
2023-04-29T13:28:02.334Z,33.62
2023-04-29T13:30:28.925Z,33.80
2023-04-29T13:32:59.898Z,33.66
2023-04-29T13:35:31.005Z,33.18
2023-04-29T13:37:57.831Z,33.07
2023-04-29T13:40:27.720Z,32.44
2023-04-29T13:43:02.218Z,32.42
2023-04-29T13:45:38.844Z,33.28
2023-04-29T13:48:20.110Z,33.77
2023-04-29T13:53:41.013Z,31.54
2023-04-29T13:59:19.811Z,33.03
2023-04-29T14:02:15.000Z,31.70
2023-04-29T14:04:12.152Z,31.88
2023-04-29T14:06:39.623Z,32.17
2023-04-29T14:09:06.350Z,32.90
2023-04-29T14:11:36.591Z,33.35
2023-04-29T14:14:03.833Z,33.85
2023-04-29T14:16:30.764Z,33.71
2023-04-29T14:18:57.628Z,33.83
2023-04-29T14:21:24.567Z,33.13
2023-04-29T14:23:51.260Z,33.66
2023-04-29T14:26:27.958Z,34.06
2023-04-29T14:28:59.986Z,34.90
2023-04-29T14:31:28.900Z,36.03
2023-04-29T14:33:59.443Z,36.26
2023-04-29T14:36:29.397Z,36.24
2023-04-29T14:38:56.126Z,36.99
2023-04-29T14:41:22.751Z,36.15
2023-04-29T14:43:49.369Z,35.99
2023-04-29T14:46:16.697Z,35.53
2023-04-29T14:48:43.625Z,37.20
2023-04-29T14:51:10.786Z,36.46
2023-04-29T14:53:37.564Z,37.60
2023-04-29T14:56:04.377Z,37.02
2023-04-29T14:58:31.160Z,36.91
2023-04-29T15:00:57.797Z,36.97
2023-04-29T15:03:24.642Z,36.70
2023-04-29T15:05:51.940Z,37.80
2023-04-29T15:08:19.678Z,37.66
2023-04-29T15:10:47.858Z,37.71
2023-04-29T15:13:15.110Z,39.04
2023-04-29T15:15:42.158Z,38.77
2023-04-29T15:18:09.171Z,38.43
2023-04-29T15:20:37.140Z,38.61
2023-04-29T15:23:04.834Z,37.84
2023-04-29T15:25:33.737Z,38.27
2023-04-29T15:28:01.478Z,39.26
2023-04-29T15:30:28.169Z,38.79
2023-04-29T15:32:55.507Z,39.73
2023-04-29T15:35:22.216Z,39.65
2023-04-29T15:37:49.157Z,39.50
2023-04-29T15:40:16.996Z,40.11
2023-04-29T15:42:43.766Z,39.93
2023-04-29T15:45:10.999Z,39.93
2023-04-29T15:47:37.680Z,40.21
2023-04-29T15:50:04.889Z,40.01
2023-04-29T15:52:31.664Z,41.14
2023-04-29T15:54:58.462Z,40.64
2023-04-29T15:57:25.998Z,42.03
2023-04-29T15:59:52.977Z,40.23
2023-04-29T16:02:21.203Z,39.94
2023-04-29T16:04:48.068Z,40.26
2023-04-29T16:07:14.787Z,40.58
2023-04-29T16:09:41.457Z,40.20
2023-04-29T16:12:08.774Z,39.99
2023-04-29T16:14:35.414Z,39.75
2023-04-29T16:17:02.251Z,40.28
2023-04-29T16:19:29.057Z,40.89
2023-04-29T16:21:55.787Z,40.75
2023-04-29T16:24:22.865Z,40.94
2023-04-29T16:26:50.871Z,41.02
2023-04-29T16:29:18.361Z,40.82
2023-04-29T16:31:45.217Z,41.06
2023-04-29T16:34:12.487Z,42.95
2023-04-29T16:36:39.399Z,42.84
2023-04-29T16:39:07.683Z,43.71
2023-04-29T16:41:34.582Z,44.93
2023-04-29T16:44:01.171Z,45.44
2023-04-29T16:46:28.082Z,47.09
2023-04-29T16:48:56.887Z,49.66
2023-04-29T16:51:27.500Z,50.28
2023-04-29T16:53:54.887Z,51.87
2023-04-29T16:56:24.498Z,53.17
2023-04-29T16:58:51.724Z,52.86
2023-04-29T17:01:19.804Z,54.55
2023-04-29T17:03:48.059Z,56.18
2023-04-29T17:06:16.098Z,55.77
2023-04-29T17:08:44.329Z,55.23
2023-04-29T17:11:11.098Z,53.28
2023-04-29T17:13:37.757Z,52.79
2023-04-29T17:16:04.829Z,51.78
2023-04-29T17:18:31.527Z,51.18
2023-04-29T17:20:58.296Z,51.14
2023-04-29T17:23:25.072Z,51.52
2023-04-29T17:25:52.836Z,51.65
2023-04-29T17:28:19.864Z,51.03
2023-04-29T17:30:46.613Z,52.75
2023-04-29T17:33:14.268Z,50.67
2023-04-29T17:35:41.231Z,51.39
2023-04-29T17:38:08.096Z,51.06
2023-04-29T17:40:34.753Z,51.16
2023-04-29T17:43:01.617Z,51.11
2023-04-29T17:45:28.294Z,51.12
2023-04-29T17:47:55.699Z,50.50
2023-04-29T17:50:22.376Z,50.33
2023-04-29T17:52:48.987Z,50.09
2023-04-29T17:55:15.618Z,51.11
2023-04-29T17:57:42.275Z,51.44
2023-04-29T18:00:09.758Z,51.92
2023-04-29T18:02:37.314Z,53.25
2023-04-29T18:05:04.509Z,52.11
2023-04-29T18:07:31.244Z,53.57
2023-04-29T18:09:58.643Z,53.37
2023-04-29T18:12:25.652Z,53.65
2023-04-29T18:14:52.367Z,53.87
2023-04-29T18:17:19.917Z,53.78
2023-04-29T18:19:48.803Z,53.59
2023-04-29T18:22:16.160Z,53.80
2023-04-29T18:24:43.383Z,54.27
2023-04-29T18:27:10.201Z,54.39
2023-04-29T18:29:36.782Z,53.73
2023-04-29T18:32:05.715Z,53.97
2023-04-29T18:34:34.143Z,55.25
2023-04-29T18:37:01.516Z,54.40
2023-04-29T18:39:28.103Z,55.15
2023-04-29T18:41:54.894Z,56.44
2023-04-29T18:44:21.522Z,55.45
2023-04-29T18:46:48.152Z,55.13
2023-04-29T18:49:17.019Z,55.13
2023-04-29T18:51:47.578Z,54.92
2023-04-29T18:54:16.106Z,55.21
2023-04-29T18:56:46.563Z,55.93
2023-04-29T18:59:16.625Z,55.90
2023-04-29T19:01:43.568Z,57.67
2023-04-29T19:04:10.458Z,59.47
2023-04-29T19:06:37.681Z,59.76
2023-04-29T19:09:08.473Z,58.95
2023-04-29T19:11:35.218Z,57.84
2023-04-29T19:14:03.980Z,58.61
2023-04-29T19:16:30.627Z,60.77
2023-04-29T19:18:57.570Z,62.44
2023-04-29T19:21:24.806Z,63.85
2023-04-29T19:23:51.613Z,64.86
2023-04-29T19:26:18.228Z,66.13
2023-04-29T19:28:46.061Z,65.66
2023-04-29T19:31:12.785Z,65.18
2023-04-29T19:33:39.598Z,65.73
2023-04-29T19:36:06.707Z,67.35
2023-04-29T19:38:34.060Z,67.69
2023-04-29T19:41:00.877Z,68.50
2023-04-29T19:43:27.593Z,68.57
2023-04-29T19:45:56.016Z,70.47
2023-04-29T19:48:22.690Z,71.91
2023-04-29T19:50:49.582Z,72.34
2023-04-29T19:53:16.338Z,72.48
2023-04-29T19:55:43.068Z,71.41
2023-04-29T19:58:10.472Z,73.01
2023-04-29T20:00:37.381Z,74.22
2023-04-29T20:03:04.128Z,74.04
2023-04-29T20:05:31.018Z,76.54
2023-04-29T20:07:57.679Z,76.99
2023-04-29T20:10:25.068Z,74.99
2023-04-29T20:12:53.046Z,73.37
2023-04-29T20:15:19.731Z,73.07
2023-04-29T20:17:46.764Z,79.80
2023-04-29T20:20:13.629Z,77.21
2023-04-29T20:22:43.943Z,75.27
2023-04-29T20:25:12.626Z,75.04
2023-04-29T20:27:39.823Z,73.79
2023-04-29T20:30:07.194Z,74.84
2023-04-29T20:32:33.769Z,72.56
2023-04-29T20:35:00.352Z,73.91
2023-04-29T20:37:27.061Z,75.66
2023-04-29T20:39:53.918Z,74.24
2023-04-29T20:42:21.046Z,74.61
2023-04-29T20:44:47.618Z,72.86
2023-04-29T20:47:14.333Z,70.90
2023-04-29T20:49:41.020Z,72.95
2023-04-29T20:52:07.681Z,74.05
2023-04-29T20:54:34.648Z,74.13
2023-04-29T20:57:04.816Z,74.59
2023-04-29T20:59:32.922Z,75.97
2023-04-29T21:01:59.773Z,81.29
2023-04-29T21:04:26.534Z,86.56
2023-04-29T21:06:53.230Z,81.69
2023-04-29T21:09:20.491Z,82.45
2023-04-29T21:11:48.211Z,83.52
2023-04-29T21:14:14.862Z,84.70
2023-04-29T21:16:42.473Z,85.95
2023-04-29T21:19:09.129Z,87.36
2023-04-29T21:21:35.779Z,88.25
2023-04-29T21:24:03.117Z,91.15
2023-04-29T21:26:29.787Z,89.24
2023-04-29T21:28:56.506Z,87.00
2023-04-29T21:31:23.217Z,87.59
2023-04-29T21:33:49.867Z,85.15
2023-04-29T21:36:16.591Z,83.82
2023-04-29T21:38:43.202Z,83.50
2023-04-29T21:41:27.382Z,84.23
2023-04-29T21:44:01.947Z,84.41
2023-04-29T21:46:29.148Z,89.81
2023-04-29T21:48:57.795Z,86.70
2023-04-29T21:51:24.634Z,85.88
2023-04-29T21:53:51.360Z,92.71
2023-04-29T21:56:18.594Z,90.33
2023-04-29T21:58:45.714Z,92.77
2023-04-29T22:01:39.845Z,93.73
2023-04-29T22:04:06.710Z,99.81
2023-04-29T22:06:34.565Z,96.59
2023-04-29T22:09:01.604Z,92.46
2023-04-29T22:11:28.443Z,98.37
2023-04-29T22:13:55.143Z,99.66
2023-04-29T22:16:23.545Z,96.28
2023-04-29T22:18:50.568Z,94.11
2023-04-29T22:21:18.013Z,92.66
2023-04-29T22:23:45.013Z,91.62
2023-04-29T22:26:11.640Z,94.35
2023-04-29T22:28:38.291Z,96.04
2023-04-29T22:31:05.009Z,94.94
2023-04-29T22:33:31.854Z,95.97
2023-04-29T22:35:58.424Z,100.00
2023-04-29T22:38:25.127Z,100.00
2023-04-29T22:40:52.911Z,100.00
2023-04-29T22:43:19.599Z,100.00
2023-04-29T22:45:53.320Z,100.00
2023-04-29T22:48:20.688Z,99.87
2023-04-29T22:50:57.298Z,100.00
2023-04-29T22:53:23.972Z,100.00
2023-04-29T22:55:55.871Z,100.00
2023-04-29T22:58:25.401Z,100.00
2023-04-29T23:00:54.700Z,100.00
2023-04-29T23:03:21.458Z,100.00
2023-04-29T23:05:48.417Z,100.00
2023-04-29T23:08:15.062Z,100.00
2023-04-29T23:10:41.841Z,100.00
2023-04-29T23:13:08.618Z,100.00
2023-04-29T23:15:35.712Z,100.00
2023-04-29T23:18:02.431Z,100.00
2023-04-29T23:20:29.529Z,100.00
2023-04-29T23:22:56.166Z,100.00
2023-04-29T23:25:22.873Z,100.00
2023-04-29T23:27:49.461Z,100.00
2023-04-29T23:30:16.155Z,100.00
2023-04-29T23:32:42.853Z,100.00
2023-04-29T23:35:11.593Z,100.00
2023-04-29T23:37:38.873Z,100.00
2023-04-29T23:40:07.126Z,100.00
2023-04-29T23:42:33.853Z,100.00
2023-04-29T23:45:00.655Z,100.00
2023-04-29T23:47:27.289Z,100.00
2023-04-29T23:49:54.137Z,100.00
2023-04-29T23:52:20.882Z,100.00
2023-04-29T23:54:47.470Z,100.00
2023-04-29T23:57:14.110Z,100.00
2023-04-29T23:59:42.477Z,100.00
